Time;durP1;ratioP1;P1;durP2;ratioP2;P2;SDS_P1;SDS_P2;PMS_P1;PMS_P2;Temp;Humidity;BMP_temperature;BMP_pressure;BME280_temperature;BME280_humidity;BME280_pressure;Samples;Min_cycle;Max_cycle;Signal;HPM_P1;HPM_P2
2022/12/14 00:00:33;;;;;;;4.05;2.60;;;;;;;;;;4772970;30;20075;-69
2022/12/14 00:03:00;;;;;;;16.73;13.50;;;;;;;;;;4772740;30;20055;-69
2022/12/14 00:05:27;;;;;;;5.60;5.07;;;;;;;;;;4772557;30;20055;-69
2022/12/14 00:07:53;;;;;;;17.65;14.88;;;;;;;;;;4773135;30;20126;-70
2022/12/14 00:10:19;;;;;;;12.32;10.25;;;;;;;;;;4772965;30;20485;-69
2022/12/14 00:12:46;;;;;;;5.15;4.43;;;;;;;;;;4772526;30;20094;-69
2022/12/14 00:15:12;;;;;;;2.85;2.60;;;;;;;;;;4772712;30;20189;-69
2022/12/14 00:17:38;;;;;;;2.38;1.90;;;;;;;;;;4772900;30;20204;-69
2022/12/14 00:20:05;;;;;;;1.95;1.85;;;;;;;;;;4772233;30;20134;-69
2022/12/14 00:22:31;;;;;;;4.80;1.67;;;;;;;;;;4772679;30;20056;-69
2022/12/14 00:24:57;;;;;;;2.17;1.40;;;;;;;;;;4772203;30;20060;-69
2022/12/14 00:27:23;;;;;;;5.47;3.05;;;;;;;;;;4772472;30;20047;-69
2022/12/14 00:29:49;;;;;;;3.95;2.33;;;;;;;;;;4772948;30;20048;-69
2022/12/14 00:32:15;;;;;;;4.28;3.03;;;;;;;;;;4772912;30;20055;-69
2022/12/14 00:34:41;;;;;;;4.78;3.10;;;;;;;;;;4772501;30;20051;-70
2022/12/14 00:37:08;;;;;;;4.68;3.72;;;;;;;;;;4772155;30;20039;-69
2022/12/14 00:39:34;;;;;;;8.38;4.00;;;;;;;;;;4771991;30;20043;-69
2022/12/14 00:42:00;;;;;;;7.28;6.15;;;;;;;;;;4772476;30;20055;-70
2022/12/14 00:44:26;;;;;;;6.07;5.22;;;;;;;;;;4771935;30;20058;-70
2022/12/14 00:46:52;;;;;;;3.38;2.83;;;;;;;;;;4772101;30;20117;-70
2022/12/14 00:49:18;;;;;;;4.03;3.33;;;;;;;;;;4771599;30;20512;-69
2022/12/14 00:51:45;;;;;;;4.30;3.90;;;;;;;;;;4771928;30;20138;-69
2022/12/14 00:54:11;;;;;;;4.95;4.45;;;;;;;;;;4772194;30;20044;-69
2022/12/14 00:56:37;;;;;;;4.50;4.10;;;;;;;;;;4771409;30;20040;-68
2022/12/14 00:59:03;;;;;;;2.47;2.28;;;;;;;;;;4771714;30;20074;-69
2022/12/14 01:01:29;;;;;;;3.78;2.72;;;;;;;;;;4772168;30;20051;-69
2022/12/14 01:04:15;;;;;;;7.38;2.83;;;;;;;;;;4771355;30;20532;-69
2022/12/14 01:06:42;;;;;;;4.07;3.55;;;;;;;;;;4771098;30;20059;-69
2022/12/14 01:09:08;;;;;;;5.95;4.43;;;;;;;;;;4771339;30;20052;-69
2022/12/14 01:11:34;;;;;;;3.55;3.17;;;;;;;;;;4772168;30;20051;-69
2022/12/14 01:14:00;;;;;;;1.90;1.70;;;;;;;;;;4771401;30;20087;-69
2022/12/14 01:16:27;;;;;;;2.85;1.83;;;;;;;;;;4772049;30;20031;-69
2022/12/14 01:18:53;;;;;;;2.42;2.10;;;;;;;;;;4771754;30;20051;-69
2022/12/14 01:21:20;;;;;;;2.45;1.95;;;;;;;;;;4771408;30;20079;-69
2022/12/14 01:23:47;;;;;;;6.72;3.10;;;;;;;;;;4770874;30;20051;-69
2022/12/14 01:26:14;;;;;;;13.85;9.23;;;;;;;;;;4771416;30;20534;-69
2022/12/14 01:28:40;;;;;;;9.20;7.70;;;;;;;;;;4771327;30;20094;-69
2022/12/14 01:31:08;;;;;;;9.88;7.80;;;;;;;;;;4771095;30;20051;-69
2022/12/14 01:33:35;;;;;;;8.63;5.70;;;;;;;;;;4771947;30;20080;-69
2022/12/14 01:36:05;;;;;;;6.30;5.70;;;;;;;;;;4771317;30;20050;-69
2022/12/14 01:38:31;;;;;;;5.40;4.90;;;;;;;;;;4771223;30;20130;-69
2022/12/14 01:40:58;;;;;;;4.40;3.97;;;;;;;;;;4770941;30;20046;-69
2022/12/14 01:43:24;;;;;;;2.10;1.95;;;;;;;;;;4771604;30;20048;-69
2022/12/14 01:45:53;;;;;;;4.32;2.40;;;;;;;;;;4771002;30;20496;-69
2022/12/14 01:48:19;;;;;;;3.60;3.10;;;;;;;;;;4771717;30;20094;-69
2022/12/14 01:50:46;;;;;;;3.13;2.70;;;;;;;;;;4771603;30;20135;-69
2022/12/14 01:53:15;;;;;;;3.45;2.58;;;;;;;;;;4771576;30;20055;-69
2022/12/14 01:55:44;;;;;;;3.40;2.72;;;;;;;;;;4771297;30;20056;-69
2022/12/14 01:58:13;;;;;;;3.00;2.33;;;;;;;;;;4771473;30;20040;-69
2022/12/14 02:00:40;;;;;;;1.75;1.40;;;;;;;;;;4771461;30;20044;-69
2022/12/14 02:03:11;;;;;;;2.38;1.60;;;;;;;;;;4771331;30;20077;-69
2022/12/14 02:05:41;;;;;;;3.13;1.90;;;;;;;;;;4771345;30;20079;-69
2022/12/14 02:08:08;;;;;;;2.50;1.80;;;;;;;;;;4770987;30;20131;-69
2022/12/14 02:10:34;;;;;;;3.47;2.35;;;;;;;;;;4774503;30;20500;-69
2022/12/14 02:13:03;;;;;;;3.53;3.00;;;;;;;;;;4775082;30;20079;-69
2022/12/14 02:15:30;;;;;;;2.22;2.10;;;;;;;;;;4774445;30;20051;-69
2022/12/14 02:17:56;;;;;;;4.72;2.30;;;;;;;;;;4774422;30;20044;-69
2022/12/14 02:20:23;;;;;;;4.57;1.85;;;;;;;;;;4774635;30;20523;-69
2022/12/14 02:22:58;;;;;;;3.97;2.88;;;;;;;;;;4774420;30;20543;-69
2022/12/14 02:25:33;;;;;;;4.13;3.72;;;;;;;;;;4774525;30;20060;-69
2022/12/14 02:28:18;;;;;;;5.57;3.92;;;;;;;;;;4774657;30;20084;-69
2022/12/14 02:30:49;;;;;;;5.93;4.18;;;;;;;;;;4774555;30;20053;-69
2022/12/14 02:33:20;;;;;;;5.55;4.57;;;;;;;;;;4774811;30;20504;-69
2022/12/14 02:35:46;;;;;;;3.55;3.25;;;;;;;;;;4774390;30;20048;-70
2022/12/14 02:38:17;;;;;;;2.90;2.33;;;;;;;;;;4774738;30;20039;-69
2022/12/14 02:40:55;;;;;;;5.43;4.75;;;;;;;;;;4774446;30;20047;-69
2022/12/14 02:43:30;;;;;;;2.90;2.60;;;;;;;;;;4774586;30;20054;-69
2022/12/14 02:45:56;;;;;;;5.82;3.67;;;;;;;;;;4773949;30;20496;-69
2022/12/14 02:48:26;;;;;;;4.63;4.13;;;;;;;;;;4773824;30;20056;-70
2022/12/14 02:51:02;;;;;;;10.23;8.13;;;;;;;;;;4773841;30;20042;-70
2022/12/14 02:53:34;;;;;;;7.72;6.05;;;;;;;;;;4773828;30;20052;-70
2022/12/14 02:56:01;;;;;;;6.40;5.07;;;;;;;;;;4773481;30;20396;-69
2022/12/14 02:58:33;;;;;;;6.10;5.43;;;;;;;;;;4773646;30;20039;-69
2022/12/14 03:01:00;;;;;;;6.22;5.55;;;;;;;;;;4773609;30;20127;-69
2022/12/14 03:03:26;;;;;;;4.13;3.75;;;;;;;;;;4773355;30;20059;-70
2022/12/14 03:05:59;;;;;;;4.03;3.63;;;;;;;;;;4773860;30;20039;-69
2022/12/14 03:08:26;;;;;;;2.92;2.63;;;;;;;;;;4773399;30;20048;-69
2022/12/14 03:11:00;;;;;;;4.97;2.97;;;;;;;;;;4773474;30;20039;-69
2022/12/14 03:13:44;;;;;;;2.22;1.83;;;;;;;;;;4773278;30;20063;-69
2022/12/14 03:16:12;;;;;;;1.30;1.20;;;;;;;;;;4773753;30;20055;-69
2022/12/14 03:18:46;;;;;;;1.48;1.35;;;;;;;;;;4773382;30;20051;-69
2022/12/14 03:21:15;;;;;;;2.72;1.85;;;;;;;;;;4772763;30;20074;-69
2022/12/14 03:23:43;;;;;;;1.20;1.10;;;;;;;;;;4773782;30;20144;-69
2022/12/14 03:26:18;;;;;;;2.25;2.05;;;;;;;;;;4772986;30;20202;-69
2022/12/14 03:28:54;;;;;;;3.00;1.80;;;;;;;;;;4773440;30;20097;-69
2022/12/14 03:31:22;;;;;;;3.63;2.05;;;;;;;;;;4772932;30;20078;-70
2022/12/14 03:33:49;;;;;;;1.42;1.33;;;;;;;;;;4772857;30;20079;-70
2022/12/14 03:36:41;;;;;;;4.80;2.00;;;;;;;;;;4772817;30;20070;-70
2022/12/14 03:39:10;;;;;;;2.88;2.05;;;;;;;;;;4771237;30;20079;-70
2022/12/14 03:41:50;;;;;;;4.07;2.85;;;;;;;;;;4772653;30;20051;-70
2022/12/14 03:44:22;;;;;;;6.57;3.85;;;;;;;;;;4773504;30;20056;-70
2022/12/14 03:47:07;;;;;;;4.90;3.40;;;;;;;;;;4773350;30;20074;-70
2022/12/14 03:49:36;;;;;;;5.22;3.53;;;;;;;;;;4773339;30;20043;-70
2022/12/14 03:52:11;;;;;;;3.58;2.97;;;;;;;;;;4773025;30;20051;-70
2022/12/14 03:54:37;;;;;;;5.13;2.72;;;;;;;;;;4772806;30;20074;-70
2022/12/14 03:57:29;;;;;;;5.47;2.30;;;;;;;;;;4773044;30;20043;-70
2022/12/14 03:59:58;;;;;;;2.58;2.30;;;;;;;;;;4758524;30;20055;-70
2022/12/14 04:02:41;;;;;;;2.25;2.05;;;;;;;;;;4772938;30;20060;-70
2022/12/14 04:05:10;;;;;;;4.30;2.70;;;;;;;;;;4773144;30;20055;-70
2022/12/14 04:07:43;;;;;;;3.95;3.30;;;;;;;;;;4772433;30;20201;-70
2022/12/14 04:19:00;;;;;;;6.13;3.78;;;;;;;;;;4772694;30;20078;-70
2022/12/14 04:21:45;;;;;;;5.40;4.25;;;;;;;;;;4773021;30;20150;-70
2022/12/14 04:27:05;;;;;;;7.10;5.00;;;;;;;;;;4772041;30;20071;-69
2022/12/14 04:32:21;;;;;;;8.85;7.03;;;;;;;;;;4771392;30;20050;-69
2022/12/14 04:34:49;;;;;;;10.73;9.63;;;;;;;;;;4772100;30;20046;-69
2022/12/14 04:37:18;;;;;;;14.43;12.93;;;;;;;;;;4772693;30;20528;-69
2022/12/14 04:39:48;;;;;;;11.00;9.52;;;;;;;;;;4772570;30;20047;-69
2022/12/14 04:42:16;;;;;;;9.20;7.28;;;;;;;;;;4772526;30;20066;-69
2022/12/14 04:44:44;;;;;;;9.18;8.00;;;;;;;;;;4772354;30;20052;-69
2022/12/14 04:47:12;;;;;;;8.75;7.88;;;;;;;;;;4771914;30;20059;-69
2022/12/14 04:49:46;;;;;;;13.80;7.45;;;;;;;;;;4772466;30;20044;-70
2022/12/14 04:52:17;;;;;;;14.68;9.02;;;;;;;;;;4771958;30;20490;-69
2022/12/14 04:54:59;;;;;;;9.00;8.10;;;;;;;;;;4772065;30;20050;-69
2022/12/14 04:57:44;;;;;;;10.65;7.43;;;;;;;;;;4772095;30;20051;-69
2022/12/14 05:00:11;;;;;;;8.00;6.88;;;;;;;;;;4771911;30;20097;-69
2022/12/14 05:02:56;;;;;;;12.35;7.53;;;;;;;;;;4772140;30;20062;-70
2022/12/14 05:05:22;;;;;;;8.35;7.50;;;;;;;;;;4771730;30;20076;-69
2022/12/14 05:08:16;;;;;;;9.73;7.95;;;;;;;;;;4771804;30;20101;-70
2022/12/14 05:10:51;;;;;;;12.13;10.18;;;;;;;;;;4770245;30;20130;-69
2022/12/14 05:13:17;;;;;;;10.23;9.23;;;;;;;;;;4772135;30;20051;-69
2022/12/14 05:15:45;;;;;;;12.50;8.90;;;;;;;;;;4772098;30;20130;-69
2022/12/14 05:18:12;;;;;;;9.32;8.23;;;;;;;;;;4771560;30;20044;-69
2022/12/14 05:20:38;;;;;;;8.90;7.78;;;;;;;;;;4772036;30;20104;-70
2022/12/14 05:23:04;;;;;;;7.70;6.68;;;;;;;;;;4771796;30;20078;-69
2022/12/14 05:25:30;;;;;;;7.13;6.35;;;;;;;;;;4771771;30;20500;-69
2022/12/14 05:27:56;;;;;;;15.50;11.75;;;;;;;;;;4771970;30;20127;-70
2022/12/14 05:30:22;;;;;;;15.10;11.13;;;;;;;;;;4761669;30;20058;-70
2022/12/14 05:32:49;;;;;;;11.63;9.77;;;;;;;;;;4753933;30;20106;-70
2022/12/14 05:35:15;;;;;;;9.18;8.25;;;;;;;;;;4753871;30;20052;-70
2022/12/14 05:37:41;;;;;;;10.63;7.57;;;;;;;;;;4753879;30;20048;-70
2022/12/14 05:40:08;;;;;;;7.95;5.97;;;;;;;;;;4753734;30;20501;-69
2022/12/14 05:42:34;;;;;;;5.57;5.03;;;;;;;;;;4755973;30;20058;-70
2022/12/14 05:45:00;;;;;;;9.32;6.97;;;;;;;;;;4775180;30;20052;-70
2022/12/14 05:47:26;;;;;;;8.52;7.35;;;;;;;;;;4774857;30;20059;-70
2022/12/14 05:49:52;;;;;;;9.50;8.00;;;;;;;;;;4775092;30;20065;-70
2022/12/14 05:52:19;;;;;;;8.93;7.55;;;;;;;;;;4774536;30;20062;-69
2022/12/14 05:54:45;;;;;;;6.50;5.90;;;;;;;;;;4774907;30;20130;-69
2022/12/14 05:57:12;;;;;;;7.38;5.35;;;;;;;;;;4774693;30;20075;-70
2022/12/14 05:59:38;;;;;;;9.73;6.85;;;;;;;;;;4774624;30;20092;-70
2022/12/14 06:02:04;;;;;;;8.90;7.07;;;;;;;;;;4774081;30;20091;-70
2022/12/14 06:04:30;;;;;;;17.65;13.70;;;;;;;;;;4774547;30;20048;-70
2022/12/14 06:06:56;;;;;;;17.50;14.00;;;;;;;;;;4774478;30;20048;-70
2022/12/14 06:09:23;;;;;;;13.48;11.63;;;;;;;;;;4774488;30;20048;-70
2022/12/14 06:11:49;;;;;;;17.08;14.13;;;;;;;;;;4773892;30;20059;-70
2022/12/14 06:14:15;;;;;;;14.10;11.90;;;;;;;;;;4774032;30;20525;-70
2022/12/14 06:16:43;;;;;;;17.83;13.35;;;;;;;;;;4772251;30;20082;-70
2022/12/14 06:19:09;;;;;;;16.55;13.07;;;;;;;;;;4764576;30;20052;-70
2022/12/14 06:21:37;;;;;;;15.60;13.50;;;;;;;;;;4762176;30;20065;-68
2022/12/14 06:24:03;;;;;;;14.95;12.00;;;;;;;;;;4767787;30;20056;-70
2022/12/14 06:26:30;;;;;;;9.10;8.15;;;;;;;;;;4764530;30;20172;-70
2022/12/14 06:28:57;;;;;;;16.85;11.52;;;;;;;;;;4756442;30;20044;-70
2022/12/14 06:31:24;;;;;;;14.10;12.57;;;;;;;;;;4756431;30;20105;-70
2022/12/14 06:33:52;;;;;;;14.50;11.32;;;;;;;;;;4756839;30;20048;-70
2022/12/14 06:36:22;;;;;;;13.32;11.27;;;;;;;;;;4767456;30;20035;-70
2022/12/14 06:38:52;;;;;;;12.38;10.88;;;;;;;;;;4772762;30;20051;-70
2022/12/14 06:41:18;;;;;;;12.13;10.85;;;;;;;;;;4767580;30;20052;-70
2022/12/14 06:43:44;;;;;;;14.35;11.35;;;;;;;;;;4758928;30;20052;-69
2022/12/14 06:46:11;;;;;;;17.73;13.93;;;;;;;;;;4757395;30;20536;-70
2022/12/14 06:48:37;;;;;;;15.48;13.30;;;;;;;;;;4754380;30;20095;-69
2022/12/14 06:51:04;;;;;;;18.40;15.23;;;;;;;;;;4755453;30;20051;-70
2022/12/14 06:53:30;;;;;;;16.90;15.20;;;;;;;;;;4762216;30;20138;-70
2022/12/14 06:56:06;;;;;;;15.18;13.32;;;;;;;;;;4756751;30;20190;-69
2022/12/14 06:58:32;;;;;;;14.05;12.13;;;;;;;;;;4759672;30;20047;-69
2022/12/14 07:01:08;;;;;;;16.27;13.02;;;;;;;;;;4765153;30;20127;-69
2022/12/14 07:03:35;;;;;;;15.35;11.93;;;;;;;;;;4772470;30;20043;-70
2022/12/14 07:06:02;;;;;;;13.15;11.02;;;;;;;;;;4755950;30;20055;-69
2022/12/14 07:08:28;;;;;;;16.98;11.73;;;;;;;;;;4755559;30;20048;-68
2022/12/14 07:10:55;;;;;;;27.77;21.77;;;;;;;;;;4754969;30;20058;-69
2022/12/14 07:13:21;;;;;;;40.70;32.30;;;;;;;;;;4754759;30;20127;-69
2022/12/14 07:15:54;;;;;;;13.80;12.30;;;;;;;;;;4755703;30;20485;-70
2022/12/14 07:18:20;;;;;;;14.38;11.70;;;;;;;;;;4755472;30;20043;-69
2022/12/14 07:20:59;;;;;;;17.05;14.85;;;;;;;;;;4755965;30;20078;-69
2022/12/14 07:23:26;;;;;;;16.95;15.15;;;;;;;;;;4755993;30;20147;-70
2022/12/14 07:25:52;;;;;;;18.17;13.85;;;;;;;;;;4755569;30;20150;-70
2022/12/14 07:28:19;;;;;;;15.32;13.73;;;;;;;;;;4755499;30;20105;-70
2022/12/14 07:30:46;;;;;;;14.70;12.82;;;;;;;;;;4755970;30;20044;-70
2022/12/14 07:33:12;;;;;;;14.43;12.65;;;;;;;;;;4755469;30;20127;-70
2022/12/14 07:35:38;;;;;;;17.13;13.55;;;;;;;;;;4755644;30;20052;-70
2022/12/14 07:38:04;;;;;;;16.05;13.00;;;;;;;;;;4755473;30;20059;-70
2022/12/14 07:40:33;;;;;;;16.67;13.90;;;;;;;;;;4739638;30;20398;-70
2022/12/14 07:42:59;;;;;;;17.20;14.38;;;;;;;;;;4756026;30;20052;-69
2022/12/14 07:45:25;;;;;;;14.82;12.85;;;;;;;;;;4755468;30;20060;-70
2022/12/14 07:47:52;;;;;;;15.13;13.13;;;;;;;;;;4755181;30;20064;-70
2022/12/14 07:50:18;;;;;;;17.00;13.70;;;;;;;;;;4755287;30;20047;-70
2022/12/14 07:52:44;;;;;;;12.18;10.88;;;;;;;;;;4755519;30;20056;-70
2022/12/14 07:55:10;;;;;;;20.00;15.63;;;;;;;;;;4755235;30;20062;-70
2022/12/14 07:57:36;;;;;;;16.77;13.23;;;;;;;;;;4755264;30;20114;-70
2022/12/14 08:00:03;;;;;;;15.75;11.45;;;;;;;;;;4755188;30;20040;-70
2022/12/14 08:02:29;;;;;;;15.77;12.75;;;;;;;;;;4754714;30;20083;-70
2022/12/14 08:04:55;;;;;;;18.88;14.77;;;;;;;;;;4754897;30;20052;-70
2022/12/14 08:07:21;;;;;;;17.60;13.40;;;;;;;;;;4753525;30;20578;-70
2022/12/14 08:09:47;;;;;;;18.65;13.63;;;;;;;;;;4754758;30;20051;-70
2022/12/14 08:12:14;;;;;;;18.60;14.00;;;;;;;;;;4755344;30;20060;-70
2022/12/14 08:14:40;;;;;;;25.85;21.67;;;;;;;;;;4754696;30;20044;-69
2022/12/14 08:17:06;;;;;;;23.23;18.45;;;;;;;;;;4754656;30;20048;-70
2022/12/14 08:19:33;;;;;;;24.10;18.95;;;;;;;;;;4754532;30;20094;-70
2022/12/14 08:21:59;;;;;;;22.10;18.10;;;;;;;;;;4754424;30;20414;-70
2022/12/14 08:24:25;;;;;;;27.88;18.85;;;;;;;;;;4754425;30;20048;-70
2022/12/14 08:26:59;;;;;;;20.25;16.17;;;;;;;;;;5113007;27;20388;-69
2022/12/14 08:29:25;;;;;;;29.60;22.38;;;;;;;;;;5112198;28;20036;-69
2022/12/14 08:31:54;;;;;;;25.10;21.48;;;;;;;;;;5112150;28;20089;-69
2022/12/14 08:34:21;;;;;;;26.17;20.77;;;;;;;;;;5112401;28;20044;-69
2022/12/14 08:36:47;;;;;;;31.42;23.98;;;;;;;;;;5112686;28;20078;-69
2022/12/14 08:39:14;;;;;;;59.17;42.22;;;;;;;;;;5112087;28;20046;-69
2022/12/14 08:41:40;;;;;;;64.63;42.85;;;;;;;;;;5112555;28;20039;-69
2022/12/14 08:44:07;;;;;;;82.55;50.13;;;;;;;;;;5111890;28;20032;-69
2022/12/14 08:46:34;;;;;;;82.43;45.45;;;;;;;;;;5112463;28;20036;-69
2022/12/14 08:49:00;;;;;;;51.92;35.85;;;;;;;;;;5112124;28;20053;-69
2022/12/14 08:51:27;;;;;;;38.53;26.63;;;;;;;;;;5112112;28;20085;-69
2022/12/14 08:53:54;;;;;;;31.65;23.08;;;;;;;;;;5111859;28;20042;-69
2022/12/14 08:56:21;;;;;;;20.08;15.93;;;;;;;;;;5111979;28;20059;-69
2022/12/14 08:58:47;;;;;;;27.35;20.63;;;;;;;;;;5112184;28;20039;-69
2022/12/14 09:01:15;;;;;;;24.33;18.52;;;;;;;;;;5111926;28;20115;-69
2022/12/14 09:03:43;;;;;;;25.38;17.73;;;;;;;;;;5111526;28;20063;-69
2022/12/14 09:06:10;;;;;;;19.23;15.95;;;;;;;;;;5111355;28;20034;-69
2022/12/14 09:08:37;;;;;;;16.58;13.60;;;;;;;;;;5111609;28;20047;-69
2022/12/14 09:11:03;;;;;;;16.85;12.88;;;;;;;;;;5111410;28;20526;-69
2022/12/14 09:13:30;;;;;;;14.27;12.00;;;;;;;;;;5111839;28;20073;-69
2022/12/14 09:15:59;;;;;;;13.30;11.20;;;;;;;;;;5111663;28;20046;-68
2022/12/14 09:18:25;;;;;;;11.05;9.27;;;;;;;;;;5111267;28;20063;-69
2022/12/14 09:20:53;;;;;;;19.92;15.30;;;;;;;;;;5111487;28;20510;-69
2022/12/14 09:23:20;;;;;;;19.80;16.73;;;;;;;;;;5111002;28;20035;-69
2022/12/14 09:25:46;;;;;;;17.02;15.07;;;;;;;;;;5110988;28;20051;-69
2022/12/14 09:28:13;;;;;;;22.42;18.20;;;;;;;;;;5111122;28;20043;-69
2022/12/14 09:30:39;;;;;;;29.48;18.52;;;;;;;;;;5111379;28;20036;-68
2022/12/14 09:33:05;;;;;;;52.63;30.52;;;;;;;;;;5111388;28;20513;-69
2022/12/14 09:35:31;;;;;;;49.92;29.75;;;;;;;;;;5111329;28;20035;-69
2022/12/14 09:37:58;;;;;;;31.20;22.83;;;;;;;;;;5099328;28;20036;-69
2022/12/14 09:40:26;;;;;;;33.42;22.73;;;;;;;;;;5097312;28;20036;-69
2022/12/14 09:42:58;;;;;;;32.67;20.60;;;;;;;;;;5097560;28;20046;-69
2022/12/14 09:45:34;;;;;;;15.85;11.68;;;;;;;;;;5097201;28;20036;-69
2022/12/14 09:48:13;;;;;;;18.67;13.35;;;;;;;;;;5097715;28;20079;-68
2022/12/14 09:50:39;;;;;;;19.75;14.27;;;;;;;;;;5097501;28;20040;-68
2022/12/14 09:53:07;;;;;;;19.48;13.35;;;;;;;;;;5097355;28;20059;-69
2022/12/14 09:55:42;;;;;;;17.13;13.25;;;;;;;;;;5097143;28;20044;-68
2022/12/14 09:58:11;;;;;;;14.85;11.88;;;;;;;;;;5097533;28;20111;-69
2022/12/14 10:00:43;;;;;;;15.35;13.65;;;;;;;;;;5097191;28;20035;-69
2022/12/14 10:03:30;;;;;;;15.27;12.77;;;;;;;;;;5096508;28;20032;-69
2022/12/14 10:06:03;;;;;;;24.95;14.77;;;;;;;;;;5097119;28;20348;-69
2022/12/14 10:08:32;;;;;;;55.08;45.88;;;;;;;;;;5096911;28;20032;-69
2022/12/14 10:10:58;;;;;;;49.25;38.13;;;;;;;;;;5096996;28;20039;-69
2022/12/14 10:13:43;;;;;;;63.70;56.78;;;;;;;;;;5096628;28;20038;-69
2022/12/14 10:16:28;;;;;;;14.45;12.02;;;;;;;;;;5096866;28;20483;-69
2022/12/14 10:18:59;;;;;;;17.42;14.73;;;;;;;;;;5096517;28;20401;-69
2022/12/14 10:21:27;;;;;;;20.77;18.67;;;;;;;;;;5096872;28;20040;-68
2022/12/14 10:23:56;;;;;;;15.75;14.15;;;;;;;;;;5096555;28;20036;-69
2022/12/14 10:26:23;;;;;;;11.77;9.77;;;;;;;;;;5096105;28;20044;-69
2022/12/14 10:28:53;;;;;;;8.70;6.72;;;;;;;;;;5097177;28;20050;-69
2022/12/14 10:31:39;;;;;;;6.72;5.38;;;;;;;;;;5096673;28;20123;-68
2022/12/14 10:34:15;;;;;;;13.90;10.90;;;;;;;;;;5096265;28;20085;-68
2022/12/14 10:36:50;;;;;;;10.95;8.77;;;;;;;;;;5096655;28;20048;-68
2022/12/14 10:39:43;;;;;;;9.57;7.40;;;;;;;;;;5096620;28;20092;-69
2022/12/14 10:42:16;;;;;;;7.65;5.88;;;;;;;;;;5087632;28;20040;-68
2022/12/14 10:44:53;;;;;;;5.85;5.20;;;;;;;;;;5095707;28;20355;-68
2022/12/14 10:47:23;;;;;;;6.82;5.50;;;;;;;;;;5095747;28;20051;-69
2022/12/14 10:49:59;;;;;;;7.60;6.70;;;;;;;;;;5095465;28;20057;-68
2022/12/14 10:52:27;;;;;;;5.40;4.88;;;;;;;;;;5096576;28;20063;-68
2022/12/14 10:55:00;;;;;;;5.78;4.97;;;;;;;;;;5095827;28;20482;-68
2022/12/14 10:57:27;;;;;;;5.10;4.60;;;;;;;;;;5096383;28;20038;-68
2022/12/14 10:59:54;;;;;;;5.38;4.88;;;;;;;;;;5095651;28;20077;-68
2022/12/14 11:02:21;;;;;;;7.43;6.63;;;;;;;;;;5096611;28;20039;-68
2022/12/14 11:04:55;;;;;;;6.80;5.70;;;;;;;;;;5096012;28;20039;-68
2022/12/14 11:07:33;;;;;;;6.28;4.30;;;;;;;;;;5096048;28;20035;-68
2022/12/14 11:10:14;;;;;;;8.77;4.30;;;;;;;;;;5095619;28;20064;-68
2022/12/14 11:12:41;;;;;;;6.93;5.25;;;;;;;;;;5095226;28;20035;-68
2022/12/14 11:15:22;;;;;;;7.40;6.70;;;;;;;;;;5095766;28;20028;-68
2022/12/14 11:17:58;;;;;;;5.90;5.25;;;;;;;;;;5096084;28;20039;-68
2022/12/14 11:20:25;;;;;;;4.90;4.50;;;;;;;;;;5095877;28;20036;-68
2022/12/14 11:22:54;;;;;;;7.32;6.30;;;;;;;;;;5095762;28;20422;-68
2022/12/14 11:25:43;;;;;;;9.82;8.82;;;;;;;;;;5095077;28;20047;-69
2022/12/14 11:28:22;;;;;;;5.20;4.70;;;;;;;;;;5092520;28;20051;-69
2022/12/14 11:30:53;;;;;;;4.70;4.20;;;;;;;;;;5095489;28;20119;-68
2022/12/14 11:33:19;;;;;;;;;;;;;;;;;;5096253;28;20489;-68
2022/12/14 11:35:51;;;;;;;5.55;4.15;;;;;;;;;;5095069;28;19911;-68
2022/12/14 11:38:18;;;;;;;3.45;3.15;;;;;;;;;;5095734;28;20028;-68
2022/12/14 11:40:45;;;;;;;4.63;3.15;;;;;;;;;;5094994;28;20032;-68
2022/12/14 11:43:33;;;;;;;3.85;3.47;;;;;;;;;;5096064;28;20039;-68
2022/12/14 11:46:00;;;;;;;6.57;5.40;;;;;;;;;;5094964;28;20054;-69
2022/12/14 11:48:26;;;;;;;5.97;4.70;;;;;;;;;;5095200;28;20518;-68
2022/12/14 11:50:54;;;;;;;5.40;4.32;;;;;;;;;;5095106;28;20028;-69
2022/12/14 11:53:21;;;;;;;5.57;4.75;;;;;;;;;;5095279;28;20044;-68
2022/12/14 11:55:53;;;;;;;6.78;4.65;;;;;;;;;;5095062;28;20044;-68
2022/12/14 11:58:21;;;;;;;7.47;5.22;;;;;;;;;;5095068;28;20036;-68
2022/12/14 12:01:02;;;;;;;20.25;17.23;;;;;;;;;;5094761;28;20040;-68
2022/12/14 12:03:28;;;;;;;;;;;;;;;;;;5095195;28;20040;-68
2022/12/14 12:05:59;;;;;;;9.27;6.75;;;;;;;;;;5094607;28;19914;-68
2022/12/14 12:08:29;;;;;;;6.75;5.72;;;;;;;;;;5094194;28;20482;-68
2022/12/14 12:10:57;;;;;;;5.93;5.32;;;;;;;;;;5094900;28;20035;-68
2022/12/14 12:13:28;;;;;;;6.47;4.88;;;;;;;;;;5094596;28;20085;-68
2022/12/14 12:15:55;;;;;;;5.65;4.88;;;;;;;;;;5094704;28;20032;-70
2022/12/14 12:18:21;;;;;;;6.35;4.85;;;;;;;;;;5094265;28;20474;-69
2022/12/14 12:20:51;;;;;;;4.72;4.32;;;;;;;;;;5095134;28;20040;-69
2022/12/14 12:23:23;;;;;;;6.50;4.15;;;;;;;;;;5095118;28;20039;-69
2022/12/14 12:25:51;;;;;;;6.57;4.20;;;;;;;;;;5094470;28;20074;-69
2022/12/14 12:28:17;;;;;;;4.28;3.88;;;;;;;;;;5094790;28;20064;-69
2022/12/14 12:30:45;;;;;;;6.53;4.10;;;;;;;;;;5094527;28;20114;-69
2022/12/14 12:33:19;;;;;;;3.90;3.50;;;;;;;;;;5095230;28;20089;-69
2022/12/14 12:35:49;;;;;;;4.63;3.72;;;;;;;;;;5094383;28;20483;-69
2022/12/14 12:38:30;;;;;;;4.88;3.58;;;;;;;;;;5094118;28;20024;-69
2022/12/14 12:40:56;;;;;;;4.53;3.70;;;;;;;;;;5094524;28;20027;-69
2022/12/14 12:43:34;;;;;;;4.95;4.07;;;;;;;;;;5094649;28;20043;-69
2022/12/14 12:46:04;;;;;;;6.85;5.65;;;;;;;;;;5094816;28;20048;-69
2022/12/14 12:48:39;;;;;;;12.73;6.53;;;;;;;;;;5094385;28;20467;-68
2022/12/14 12:51:11;;;;;;;9.50;6.22;;;;;;;;;;5094461;28;20059;-69
2022/12/14 12:53:37;;;;;;;7.63;5.82;;;;;;;;;;5094425;28;20033;-69
2022/12/14 12:56:10;;;;;;;6.97;5.50;;;;;;;;;;5094007;28;20471;-69
2022/12/14 12:58:37;;;;;;;4.78;4.32;;;;;;;;;;5094411;28;20028;-69
2022/12/14 13:01:21;;;;;;;7.00;5.45;;;;;;;;;;5094321;28;20036;-69
2022/12/14 13:03:50;;;;;;;4.90;4.32;;;;;;;;;;5094928;28;20044;-69
2022/12/14 13:06:33;;;;;;;5.40;4.90;;;;;;;;;;5093960;28;20043;-69
2022/12/14 13:09:01;;;;;;;7.00;5.15;;;;;;;;;;5094103;28;20054;-69
2022/12/14 13:11:32;;;;;;;6.03;5.30;;;;;;;;;;5094624;28;20040;-69
2022/12/14 13:14:14;;;;;;;14.10;10.20;;;;;;;;;;5095772;28;20041;-69
2022/12/14 13:16:41;;;;;;;20.17;17.77;;;;;;;;;;5086149;28;20048;-69
2022/12/14 13:19:21;;;;;;;18.75;15.60;;;;;;;;;;5077280;28;20093;-69
2022/12/14 13:21:48;;;;;;;6.70;5.65;;;;;;;;;;5077214;28;20041;-69
2022/12/14 13:24:16;;;;;;;7.03;5.55;;;;;;;;;;5076934;28;20036;-69
2022/12/14 13:26:46;;;;;;;6.03;5.28;;;;;;;;;;5076766;28;20044;-69
2022/12/14 13:29:15;;;;;;;6.47;5.85;;;;;;;;;;5077004;28;20099;-69
2022/12/14 13:31:42;;;;;;;8.10;7.25;;;;;;;;;;5076827;28;20450;-69
2022/12/14 13:34:08;;;;;;;6.30;5.70;;;;;;;;;;5077025;28;20131;-69
2022/12/14 13:36:41;;;;;;;7.00;5.97;;;;;;;;;;5077007;28;20071;-69
2022/12/14 13:39:22;;;;;;;6.47;5.88;;;;;;;;;;5077021;28;20540;-69
2022/12/14 13:41:48;;;;;;;;;;;;;;;;;;5077514;28;20040;-69
2022/12/14 13:44:31;;;;;;;4.97;4.13;;;;;;;;;;5076969;28;20296;-69
2022/12/14 13:46:59;;;;;;;5.28;4.18;;;;;;;;;;5076687;28;20111;-69
2022/12/14 13:49:26;;;;;;;6.25;4.07;;;;;;;;;;5076787;28;20085;-69
2022/12/14 13:51:53;;;;;;;4.90;4.40;;;;;;;;;;5076255;28;20063;-69
2022/12/14 13:54:32;;;;;;;3.92;3.60;;;;;;;;;;5076704;28;20060;-69
2022/12/14 13:57:22;;;;;;;4.03;3.58;;;;;;;;;;5076879;28;20075;-69
2022/12/14 13:59:49;;;;;;;5.15;4.65;;;;;;;;;;5080825;28;20039;-70
2022/12/14 14:02:27;;;;;;;5.35;3.85;;;;;;;;;;5097221;28;20538;-69
2022/12/14 14:05:11;;;;;;;6.85;4.63;;;;;;;;;;5096779;28;20050;-69
2022/12/14 14:07:50;;;;;;;7.00;4.55;;;;;;;;;;5097229;28;20028;-69
2022/12/14 14:10:33;;;;;;;12.10;4.47;;;;;;;;;;5096787;28;20036;-69
2022/12/14 14:13:00;;;;;;;4.40;4.00;;;;;;;;;;5097067;28;20036;-69
2022/12/14 14:15:47;;;;;;;4.30;3.90;;;;;;;;;;5096641;28;20039;-69
2022/12/14 14:18:14;;;;;;;6.10;3.22;;;;;;;;;;5097416;28;20028;-69
2022/12/14 14:20:48;;;;;;;6.65;4.32;;;;;;;;;;5096940;28;20063;-69
2022/12/14 14:23:15;;;;;;;7.43;4.13;;;;;;;;;;5095377;28;20390;-70
2022/12/14 14:25:51;;;;;;;6.90;4.82;;;;;;;;;;5096352;28;20058;-69
2022/12/14 14:28:18;;;;;;;6.75;4.85;;;;;;;;;;5097279;28;20032;-69
2022/12/14 14:30:52;;;;;;;7.32;4.70;;;;;;;;;;5096395;28;20060;-69
2022/12/14 14:33:32;;;;;;;5.72;4.93;;;;;;;;;;5096558;28;20039;-69
2022/12/14 14:36:20;;;;;;;5.50;5.00;;;;;;;;;;5096265;28;20040;-70
2022/12/14 14:38:47;;;;;;;5.53;4.80;;;;;;;;;;5096379;28;20115;-70
2022/12/14 14:41:20;;;;;;;6.80;5.35;;;;;;;;;;5096472;28;20471;-70
2022/12/14 14:43:47;;;;;;;5.85;5.25;;;;;;;;;;5096681;28;20463;-70
2022/12/14 14:46:14;;;;;;;6.47;5.60;;;;;;;;;;5096015;28;20065;-70
2022/12/14 14:48:40;;;;;;;6.25;5.65;;;;;;;;;;5096007;28;20064;-70
2022/12/14 14:51:10;;;;;;;6.93;5.75;;;;;;;;;;5095952;28;20066;-70
2022/12/14 14:53:39;;;;;;;7.30;5.53;;;;;;;;;;5095874;28;20116;-70
2022/12/14 14:56:23;;;;;;;5.82;5.20;;;;;;;;;;5095830;28;20092;-70
2022/12/14 14:58:49;;;;;;;8.10;6.45;;;;;;;;;;5096354;28;20032;-70
2022/12/14 15:01:25;;;;;;;6.70;6.00;;;;;;;;;;5095762;28;20028;-70
2022/12/14 15:04:00;;;;;;;6.18;5.57;;;;;;;;;;5096144;28;20036;-70
2022/12/14 15:06:32;;;;;;;11.07;6.20;;;;;;;;;;5096293;28;20059;-70